sensor_id;sensor_type;location;lat;lon;timestamp;P1;durP1;ratioP1;P2;durP2;ratioP2
49592;SDS011;35499;51.482;4.264;2022-08-11T00:02:49;4.68;;;3.03;;
49592;SDS011;35499;51.482;4.264;2022-08-11T00:05:42;5.32;;;3.42;;
49592;SDS011;35499;51.482;4.264;2022-08-11T00:08:28;5.57;;;3.60;;
49592;SDS011;35499;51.482;4.264;2022-08-11T00:11:12;5.40;;;2.85;;
49592;SDS011;35499;51.482;4.264;2022-08-11T00:14:00;4.60;;;3.07;;
49592;SDS011;35499;51.482;4.264;2022-08-11T00:17:01;5.95;;;3.00;;
49592;SDS011;35499;51.482;4.264;2022-08-11T00:19:47;7.30;;;3.58;;
49592;SDS011;35499;51.482;4.264;2022-08-11T00:22:32;5.13;;;3.10;;
49592;SDS011;35499;51.482;4.264;2022-08-11T00:25:17;5.60;;;3.15;;
49592;SDS011;35499;51.482;4.264;2022-08-11T00:28:02;4.28;;;2.88;;
49592;SDS011;35499;51.482;4.264;2022-08-11T00:30:45;5.90;;;3.17;;
49592;SDS011;35499;51.482;4.264;2022-08-11T00:33:34;4.38;;;2.80;;
49592;SDS011;35499;51.482;4.264;2022-08-11T00:36:21;6.75;;;2.97;;
49592;SDS011;35499;51.482;4.264;2022-08-11T00:39:07;5.15;;;3.38;;
49592;SDS011;35499;51.482;4.264;2022-08-11T00:42:08;6.32;;;3.08;;
49592;SDS011;35499;51.482;4.264;2022-08-11T00:45:03;4.13;;;2.50;;
49592;SDS011;35499;51.482;4.264;2022-08-11T01:00:02;8.20;;;3.58;;
49592;SDS011;35499;51.482;4.264;2022-08-11T01:40:55;4.82;;;2.92;;
49592;SDS011;35499;51.482;4.264;2022-08-11T01:50:49;7.18;;;3.17;;
49592;SDS011;35499;51.482;4.264;2022-08-11T01:59:45;4.87;;;3.47;;
49592;SDS011;35499;51.482;4.264;2022-08-11T02:02:35;4.50;;;3.13;;
49592;SDS011;35499;51.482;4.264;2022-08-11T02:14:30;5.07;;;3.25;;
49592;SDS011;35499;51.482;4.264;2022-08-11T02:17:21;6.35;;;3.38;;
49592;SDS011;35499;51.482;4.264;2022-08-11T02:20:16;5.20;;;3.60;;
49592;SDS011;35499;51.482;4.264;2022-08-11T02:23:38;5.68;;;3.55;;
49592;SDS011;35499;51.482;4.264;2022-08-11T02:29:23;5.95;;;3.72;;
49592;SDS011;35499;51.482;4.264;2022-08-11T02:43:40;8.65;;;3.70;;
49592;SDS011;35499;51.482;4.264;2022-08-11T02:46:30;5.85;;;3.13;;
49592;SDS011;35499;51.482;4.264;2022-08-11T02:49:32;5.93;;;3.63;;
49592;SDS011;35499;51.482;4.264;2022-08-11T02:52:38;6.40;;;4.13;;
49592;SDS011;35499;51.482;4.264;2022-08-11T02:58:49;5.63;;;3.53;;
49592;SDS011;35499;51.482;4.264;2022-08-11T03:02:01;4.75;;;3.55;;
49592;SDS011;35499;51.482;4.264;2022-08-11T03:11:04;6.13;;;3.30;;
49592;SDS011;35499;51.482;4.264;2022-08-11T03:17:24;6.78;;;3.45;;
49592;SDS011;35499;51.482;4.264;2022-08-11T03:23:02;5.25;;;3.53;;
49592;SDS011;35499;51.482;4.264;2022-08-11T03:31:26;6.72;;;4.10;;
49592;SDS011;35499;51.482;4.264;2022-08-11T03:34:18;6.13;;;3.88;;
49592;SDS011;35499;51.482;4.264;2022-08-11T03:37:16;6.43;;;3.63;;
49592;SDS011;35499;51.482;4.264;2022-08-11T03:49:27;5.30;;;3.63;;
49592;SDS011;35499;51.482;4.264;2022-08-11T03:52:30;6.13;;;3.05;;
49592;SDS011;35499;51.482;4.264;2022-08-11T03:55:22;5.22;;;3.30;;
49592;SDS011;35499;51.482;4.264;2022-08-11T04:04:03;5.65;;;3.35;;
49592;SDS011;35499;51.482;4.264;2022-08-11T04:09:46;7.65;;;4.15;;
49592;SDS011;35499;51.482;4.264;2022-08-11T04:22:14;9.23;;;4.15;;
49592;SDS011;35499;51.482;4.264;2022-08-11T04:25:15;6.78;;;3.90;;
49592;SDS011;35499;51.482;4.264;2022-08-11T04:33:40;5.45;;;3.58;;
49592;SDS011;35499;51.482;4.264;2022-08-11T04:58:51;6.35;;;4.18;;
49592;SDS011;35499;51.482;4.264;2022-08-11T05:05:00;4.78;;;3.55;;
49592;SDS011;35499;51.482;4.264;2022-08-11T05:08:34;6.80;;;3.35;;
49592;SDS011;35499;51.482;4.264;2022-08-11T06:10:30;5.13;;;3.00;;
49592;SDS011;35499;51.482;4.264;2022-08-11T06:16:00;9.15;;;4.22;;
49592;SDS011;35499;51.482;4.264;2022-08-11T06:18:45;4.90;;;3.25;;
49592;SDS011;35499;51.482;4.264;2022-08-11T06:21:33;5.95;;;3.50;;
49592;SDS011;35499;51.482;4.264;2022-08-11T06:24:18;6.90;;;3.20;;
49592;SDS011;35499;51.482;4.264;2022-08-11T06:27:02;4.93;;;3.22;;
49592;SDS011;35499;51.482;4.264;2022-08-11T06:29:49;5.27;;;3.23;;
49592;SDS011;35499;51.482;4.264;2022-08-11T06:32:34;6.10;;;3.22;;
49592;SDS011;35499;51.482;4.264;2022-08-11T06:41:17;5.88;;;3.78;;
49592;SDS011;35499;51.482;4.264;2022-08-11T06:49:44;5.80;;;2.90;;
49592;SDS011;35499;51.482;4.264;2022-08-11T06:52:47;6.22;;;3.15;;
49592;SDS011;35499;51.482;4.264;2022-08-11T06:55:31;4.93;;;2.80;;
49592;SDS011;35499;51.482;4.264;2022-08-11T06:58:39;4.25;;;3.22;;
49592;SDS011;35499;51.482;4.264;2022-08-11T07:04:39;5.75;;;3.42;;
49592;SDS011;35499;51.482;4.264;2022-08-11T07:14:02;5.10;;;2.50;;
49592;SDS011;35499;51.482;4.264;2022-08-11T07:17:06;3.35;;;2.70;;
49592;SDS011;35499;51.482;4.264;2022-08-11T07:19:55;4.57;;;3.00;;
49592;SDS011;35499;51.482;4.264;2022-08-11T07:23:00;4.35;;;3.00;;
49592;SDS011;35499;51.482;4.264;2022-08-11T07:31:50;5.53;;;2.70;;
49592;SDS011;35499;51.482;4.264;2022-08-11T07:34:36;4.88;;;2.80;;
49592;SDS011;35499;51.482;4.264;2022-08-11T07:37:23;6.70;;;3.20;;
49592;SDS011;35499;51.482;4.264;2022-08-11T07:40:08;5.28;;;2.67;;
49592;SDS011;35499;51.482;4.264;2022-08-11T07:42:53;5.35;;;2.47;;
49592;SDS011;35499;51.482;4.264;2022-08-11T07:45:41;8.85;;;3.05;;
49592;SDS011;35499;51.482;4.264;2022-08-11T07:48:44;4.35;;;2.50;;
49592;SDS011;35499;51.482;4.264;2022-08-11T07:51:47;4.82;;;2.28;;
49592;SDS011;35499;51.482;4.264;2022-08-11T07:54:51;5.70;;;2.38;;
49592;SDS011;35499;51.482;4.264;2022-08-11T07:57:35;5.53;;;2.20;;
49592;SDS011;35499;51.482;4.264;2022-08-11T08:00:39;4.25;;;2.58;;
49592;SDS011;35499;51.482;4.264;2022-08-11T08:03:44;7.70;;;2.40;;
49592;SDS011;35499;51.482;4.264;2022-08-11T08:06:48;5.03;;;2.17;;
49592;SDS011;35499;51.482;4.264;2022-08-11T08:09:51;4.85;;;2.30;;
49592;SDS011;35499;51.482;4.264;2022-08-11T08:12:55;4.57;;;2.13;;
49592;SDS011;35499;51.482;4.264;2022-08-11T08:15:58;5.82;;;2.13;;
49592;SDS011;35499;51.482;4.264;2022-08-11T08:19:01;4.57;;;2.63;;
49592;SDS011;35499;51.482;4.264;2022-08-11T08:21:45;4.93;;;2.42;;
49592;SDS011;35499;51.482;4.264;2022-08-11T08:24:29;5.03;;;2.08;;
49592;SDS011;35499;51.482;4.264;2022-08-11T08:27:15;7.90;;;2.38;;
49592;SDS011;35499;51.482;4.264;2022-08-11T08:29:59;3.00;;;1.80;;
49592;SDS011;35499;51.482;4.264;2022-08-11T08:33:03;4.70;;;2.30;;
49592;SDS011;35499;51.482;4.264;2022-08-11T08:35:49;6.18;;;2.50;;
49592;SDS011;35499;51.482;4.264;2022-08-11T08:38:33;3.53;;;1.77;;
49592;SDS011;35499;51.482;4.264;2022-08-11T08:41:19;5.78;;;2.15;;
49592;SDS011;35499;51.482;4.264;2022-08-11T08:44:07;4.18;;;2.15;;
49592;SDS011;35499;51.482;4.264;2022-08-11T08:46:53;4.15;;;1.90;;
49592;SDS011;35499;51.482;4.264;2022-08-11T08:49:38;6.03;;;2.30;;
49592;SDS011;35499;51.482;4.264;2022-08-11T08:52:24;3.75;;;2.28;;
49592;SDS011;35499;51.482;4.264;2022-08-11T08:55:15;6.93;;;2.30;;
49592;SDS011;35499;51.482;4.264;2022-08-11T08:58:00;6.35;;;2.17;;
49592;SDS011;35499;51.482;4.264;2022-08-11T10:28:53;3.58;;;2.03;;
49592;SDS011;35499;51.482;4.264;2022-08-11T10:31:37;2.90;;;1.98;;
49592;SDS011;35499;51.482;4.264;2022-08-11T10:34:45;8.35;;;2.20;;
49592;SDS011;35499;51.482;4.264;2022-08-11T10:40:20;5.30;;;2.00;;
49592;SDS011;35499;51.482;4.264;2022-08-11T10:45:49;4.20;;;1.95;;
49592;SDS011;35499;51.482;4.264;2022-08-11T10:48:52;3.95;;;2.10;;
49592;SDS011;35499;51.482;4.264;2022-08-11T10:51:37;2.83;;;1.98;;
49592;SDS011;35499;51.482;4.264;2022-08-11T10:54:40;5.95;;;2.28;;
49592;SDS011;35499;51.482;4.264;2022-08-11T10:57:43;2.60;;;1.90;;
49592;SDS011;35499;51.482;4.264;2022-08-11T11:00:46;3.78;;;2.30;;
49592;SDS011;35499;51.482;4.264;2022-08-11T11:03:32;4.60;;;2.38;;
49592;SDS011;35499;51.482;4.264;2022-08-11T11:09:20;6.03;;;2.50;;
49592;SDS011;35499;51.482;4.264;2022-08-11T11:12:10;6.63;;;2.65;;
49592;SDS011;35499;51.482;4.264;2022-08-11T11:15:13;3.78;;;2.50;;
49592;SDS011;35499;51.482;4.264;2022-08-11T11:18:52;3.15;;;2.30;;
49592;SDS011;35499;51.482;4.264;2022-08-11T11:21:32;4.07;;;2.58;;
49592;SDS011;35499;51.482;4.264;2022-08-11T11:27:07;4.38;;;2.88;;
49592;SDS011;35499;51.482;4.264;2022-08-11T11:30:07;3.53;;;2.30;;
49592;SDS011;35499;51.482;4.264;2022-08-11T11:33:01;3.95;;;2.38;;
49592;SDS011;35499;51.482;4.264;2022-08-11T11:36:09;3.38;;;2.20;;
49592;SDS011;35499;51.482;4.264;2022-08-11T11:38:54;6.88;;;2.80;;
49592;SDS011;35499;51.482;4.264;2022-08-11T11:41:39;7.63;;;2.95;;
49592;SDS011;35499;51.482;4.264;2022-08-11T11:44:24;6.28;;;2.50;;
49592;SDS011;35499;51.482;4.264;2022-08-11T11:47:09;3.50;;;2.55;;
49592;SDS011;35499;51.482;4.264;2022-08-11T11:49:54;3.50;;;2.45;;
49592;SDS011;35499;51.482;4.264;2022-08-11T11:52:38;4.35;;;2.58;;
49592;SDS011;35499;51.482;4.264;2022-08-11T11:55:23;2.90;;;2.40;;
49592;SDS011;35499;51.482;4.264;2022-08-11T11:58:08;3.42;;;2.67;;
49592;SDS011;35499;51.482;4.264;2022-08-11T12:01:12;6.20;;;2.90;;
49592;SDS011;35499;51.482;4.264;2022-08-11T12:03:59;5.38;;;2.55;;
49592;SDS011;35499;51.482;4.264;2022-08-11T12:06:43;7.70;;;2.75;;
49592;SDS011;35499;51.482;4.264;2022-08-11T12:09:27;4.45;;;2.90;;
49592;SDS011;35499;51.482;4.264;2022-08-11T12:12:11;3.90;;;2.72;;
49592;SDS011;35499;51.482;4.264;2022-08-11T12:15:14;4.10;;;2.47;;
49592;SDS011;35499;51.482;4.264;2022-08-11T12:18:01;6.75;;;3.78;;
49592;SDS011;35499;51.482;4.264;2022-08-11T12:20:46;5.90;;;2.70;;
49592;SDS011;35499;51.482;4.264;2022-08-11T12:23:31;3.10;;;2.60;;
49592;SDS011;35499;51.482;4.264;2022-08-11T12:26:34;3.92;;;2.72;;
49592;SDS011;35499;51.482;4.264;2022-08-11T12:29:37;3.85;;;2.58;;
49592;SDS011;35499;51.482;4.264;2022-08-11T12:32:22;3.70;;;2.60;;
49592;SDS011;35499;51.482;4.264;2022-08-11T12:35:07;5.55;;;2.80;;
49592;SDS011;35499;51.482;4.264;2022-08-11T12:37:51;4.50;;;2.70;;
49592;SDS011;35499;51.482;4.264;2022-08-11T12:40:42;4.10;;;2.92;;
49592;SDS011;35499;51.482;4.264;2022-08-11T12:43:45;4.40;;;2.75;;
49592;SDS011;35499;51.482;4.264;2022-08-11T12:46:48;5.68;;;2.50;;
49592;SDS011;35499;51.482;4.264;2022-08-11T12:49:34;5.05;;;2.45;;
49592;SDS011;35499;51.482;4.264;2022-08-11T12:52:41;4.10;;;2.70;;
49592;SDS011;35499;51.482;4.264;2022-08-11T12:55:26;3.97;;;2.35;;
49592;SDS011;35499;51.482;4.264;2022-08-11T12:58:29;5.72;;;2.80;;
49592;SDS011;35499;51.482;4.264;2022-08-11T13:01:13;4.65;;;2.80;;
49592;SDS011;35499;51.482;4.264;2022-08-11T13:04:17;3.05;;;2.35;;
49592;SDS011;35499;51.482;4.264;2022-08-11T13:07:20;3.30;;;2.42;;
49592;SDS011;35499;51.482;4.264;2022-08-11T13:10:04;3.70;;;2.50;;
49592;SDS011;35499;51.482;4.264;2022-08-11T13:12:48;4.05;;;2.45;;
49592;SDS011;35499;51.482;4.264;2022-08-11T13:15:32;5.75;;;2.83;;
49592;SDS011;35499;51.482;4.264;2022-08-11T13:18:20;3.50;;;2.38;;
49592;SDS011;35499;51.482;4.264;2022-08-11T13:21:05;2.80;;;1.98;;
49592;SDS011;35499;51.482;4.264;2022-08-11T13:23:53;3.78;;;2.60;;
49592;SDS011;35499;51.482;4.264;2022-08-11T13:26:38;3.55;;;2.65;;
49592;SDS011;35499;51.482;4.264;2022-08-11T13:29:23;4.10;;;2.50;;
49592;SDS011;35499;51.482;4.264;2022-08-11T13:32:07;4.13;;;2.60;;
49592;SDS011;35499;51.482;4.264;2022-08-11T13:37:38;3.17;;;2.30;;
49592;SDS011;35499;51.482;4.264;2022-08-11T13:40:22;3.83;;;2.30;;
49592;SDS011;35499;51.482;4.264;2022-08-11T13:43:07;3.97;;;2.90;;
49592;SDS011;35499;51.482;4.264;2022-08-11T13:45:52;3.45;;;2.70;;
49592;SDS011;35499;51.482;4.264;2022-08-11T13:48:56;7.25;;;3.05;;
49592;SDS011;35499;51.482;4.264;2022-08-11T13:51:40;4.13;;;2.55;;
49592;SDS011;35499;51.482;4.264;2022-08-11T13:57:09;5.70;;;2.60;;
49592;SDS011;35499;51.482;4.264;2022-08-11T13:59:55;5.07;;;2.50;;
49592;SDS011;35499;51.482;4.264;2022-08-11T22:04:35;3.60;;;2.42;;
49592;SDS011;35499;51.482;4.264;2022-08-11T22:07:38;4.43;;;2.40;;
49592;SDS011;35499;51.482;4.264;2022-08-11T22:10:41;6.63;;;2.70;;
49592;SDS011;35499;51.482;4.264;2022-08-11T22:13:44;6.18;;;2.63;;
49592;SDS011;35499;51.482;4.264;2022-08-11T22:16:47;5.72;;;3.05;;
49592;SDS011;35499;51.482;4.264;2022-08-11T22:19:50;4.63;;;2.80;;
49592;SDS011;35499;51.482;4.264;2022-08-11T22:22:53;3.50;;;2.60;;
49592;SDS011;35499;51.482;4.264;2022-08-11T22:25:57;4.70;;;2.95;;
49592;SDS011;35499;51.482;4.264;2022-08-11T22:29:00;3.60;;;2.60;;
49592;SDS011;35499;51.482;4.264;2022-08-11T22:32:03;5.97;;;3.20;;
49592;SDS011;35499;51.482;4.264;2022-08-11T22:35:07;4.95;;;2.95;;
49592;SDS011;35499;51.482;4.264;2022-08-11T22:38:10;5.88;;;3.45;;
49592;SDS011;35499;51.482;4.264;2022-08-11T22:41:14;4.63;;;3.10;;
49592;SDS011;35499;51.482;4.264;2022-08-11T22:44:17;4.47;;;3.30;;
49592;SDS011;35499;51.482;4.264;2022-08-11T22:47:20;8.75;;;3.25;;
49592;SDS011;35499;51.482;4.264;2022-08-11T22:50:24;5.57;;;3.20;;
49592;SDS011;35499;51.482;4.264;2022-08-11T22:53:27;6.22;;;3.47;;
49592;SDS011;35499;51.482;4.264;2022-08-11T22:56:30;6.80;;;3.50;;
49592;SDS011;35499;51.482;4.264;2022-08-11T22:59:34;5.80;;;3.33;;
49592;SDS011;35499;51.482;4.264;2022-08-11T23:02:37;6.78;;;3.47;;
49592;SDS011;35499;51.482;4.264;2022-08-11T23:05:41;4.05;;;3.00;;
49592;SDS011;35499;51.482;4.264;2022-08-11T23:08:44;8.95;;;3.30;;
49592;SDS011;35499;51.482;4.264;2022-08-11T23:11:48;5.80;;;3.28;;
49592;SDS011;35499;51.482;4.264;2022-08-11T23:14:52;6.35;;;3.47;;
49592;SDS011;35499;51.482;4.264;2022-08-11T23:17:56;4.38;;;2.55;;
49592;SDS011;35499;51.482;4.264;2022-08-11T23:20:59;4.45;;;2.78;;
49592;SDS011;35499;51.482;4.264;2022-08-11T23:24:03;4.22;;;2.78;;
49592;SDS011;35499;51.482;4.264;2022-08-11T23:27:07;7.30;;;3.55;;
49592;SDS011;35499;51.482;4.264;2022-08-11T23:30:10;5.88;;;3.40;;
49592;SDS011;35499;51.482;4.264;2022-08-11T23:33:14;6.40;;;3.63;;
49592;SDS011;35499;51.482;4.264;2022-08-11T23:36:18;5.25;;;3.33;;
49592;SDS011;35499;51.482;4.264;2022-08-11T23:39:22;5.97;;;3.45;;
49592;SDS011;35499;51.482;4.264;2022-08-11T23:42:25;4.28;;;2.72;;
49592;SDS011;35499;51.482;4.264;2022-08-11T23:45:28;3.90;;;2.67;;
49592;SDS011;35499;51.482;4.264;2022-08-11T23:48:31;3.95;;;2.70;;
49592;SDS011;35499;51.482;4.264;2022-08-11T23:51:34;6.47;;;2.47;;
49592;SDS011;35499;51.482;4.264;2022-08-11T23:54:38;4.57;;;2.42;;
49592;SDS011;35499;51.482;4.264;2022-08-11T23:57:41;3.95;;;2.33;;
